sensor_id;sensor_type;location;lat;lon;timestamp;temperature;humidity
3944;DHT22;1986;52.546;13.428;2022-09-02T00:01:37;13.20;99.90
3944;DHT22;1986;52.546;13.428;2022-09-02T00:04:06;13.20;99.90
3944;DHT22;1986;52.546;13.428;2022-09-02T00:06:40;13.20;99.90
3944;DHT22;1986;52.546;13.428;2022-09-02T00:09:09;13.20;99.90
3944;DHT22;1986;52.546;13.428;2022-09-02T00:11:38;13.20;99.90
3944;DHT22;1986;52.546;13.428;2022-09-02T00:14:07;13.20;99.90
3944;DHT22;1986;52.546;13.428;2022-09-02T00:16:35;13.20;99.90
3944;DHT22;1986;52.546;13.428;2022-09-02T00:19:04;13.20;99.90
3944;DHT22;1986;52.546;13.428;2022-09-02T00:21:34;13.20;99.90
3944;DHT22;1986;52.546;13.428;2022-09-02T00:24:05;13.20;99.90
3944;DHT22;1986;52.546;13.428;2022-09-02T00:26:33;13.20;99.90
3944;DHT22;1986;52.546;13.428;2022-09-02T00:29:00;13.20;99.90
3944;DHT22;1986;52.546;13.428;2022-09-02T00:31:27;13.30;99.90
3944;DHT22;1986;52.546;13.428;2022-09-02T00:33:54;13.30;99.90
3944;DHT22;1986;52.546;13.428;2022-09-02T00:36:22;13.30;99.90
3944;DHT22;1986;52.546;13.428;2022-09-02T00:38:49;13.40;99.90
3944;DHT22;1986;52.546;13.428;2022-09-02T00:41:19;13.40;99.90
3944;DHT22;1986;52.546;13.428;2022-09-02T00:43:50;13.50;99.90
3944;DHT22;1986;52.546;13.428;2022-09-02T00:46:19;13.50;99.90
3944;DHT22;1986;52.546;13.428;2022-09-02T00:48:51;13.60;99.90
3944;DHT22;1986;52.546;13.428;2022-09-02T00:51:19;13.70;99.90
3944;DHT22;1986;52.546;13.428;2022-09-02T00:53:47;13.70;99.90
3944;DHT22;1986;52.546;13.428;2022-09-02T00:56:20;13.70;99.90
3944;DHT22;1986;52.546;13.428;2022-09-02T00:58:49;13.80;99.90
3944;DHT22;1986;52.546;13.428;2022-09-02T01:01:17;13.80;99.90
3944;DHT22;1986;52.546;13.428;2022-09-02T01:03:45;13.80;99.90
3944;DHT22;1986;52.546;13.428;2022-09-02T01:06:15;13.90;99.90
3944;DHT22;1986;52.546;13.428;2022-09-02T01:08:48;13.90;99.90
3944;DHT22;1986;52.546;13.428;2022-09-02T01:11:20;14.00;99.90
3944;DHT22;1986;52.546;13.428;2022-09-02T01:13:49;14.00;99.90
3944;DHT22;1986;52.546;13.428;2022-09-02T01:16:22;14.00;99.90
3944;DHT22;1986;52.546;13.428;2022-09-02T01:18:52;14.10;99.90
3944;DHT22;1986;52.546;13.428;2022-09-02T01:21:21;14.10;99.90
3944;DHT22;1986;52.546;13.428;2022-09-02T01:23:50;14.10;99.90
3944;DHT22;1986;52.546;13.428;2022-09-02T01:26:18;14.10;99.90
3944;DHT22;1986;52.546;13.428;2022-09-02T01:28:45;14.10;99.90
3944;DHT22;1986;52.546;13.428;2022-09-02T01:31:12;14.10;99.90
3944;DHT22;1986;52.546;13.428;2022-09-02T01:33:39;14.10;99.90
3944;DHT22;1986;52.546;13.428;2022-09-02T01:36:06;14.10;99.90
3944;DHT22;1986;52.546;13.428;2022-09-02T01:38:36;14.20;99.90
3944;DHT22;1986;52.546;13.428;2022-09-02T01:41:05;14.10;99.90
3944;DHT22;1986;52.546;13.428;2022-09-02T01:43:32;14.10;99.90
3944;DHT22;1986;52.546;13.428;2022-09-02T01:45:59;14.10;99.90
3944;DHT22;1986;52.546;13.428;2022-09-02T01:48:27;14.10;99.90
3944;DHT22;1986;52.546;13.428;2022-09-02T01:50:57;14.10;99.90
3944;DHT22;1986;52.546;13.428;2022-09-02T01:53:24;14.00;99.90
3944;DHT22;1986;52.546;13.428;2022-09-02T01:55:51;14.00;99.90
3944;DHT22;1986;52.546;13.428;2022-09-02T01:58:19;14.10;99.90
3944;DHT22;1986;52.546;13.428;2022-09-02T02:00:47;14.10;99.90
3944;DHT22;1986;52.546;13.428;2022-09-02T02:03:14;14.00;99.90
3944;DHT22;1986;52.546;13.428;2022-09-02T02:05:41;14.00;99.90
3944;DHT22;1986;52.546;13.428;2022-09-02T02:08:08;14.00;99.90
3944;DHT22;1986;52.546;13.428;2022-09-02T02:10:38;14.00;99.90
3944;DHT22;1986;52.546;13.428;2022-09-02T02:13:05;14.10;99.90
3944;DHT22;1986;52.546;13.428;2022-09-02T02:15:36;14.10;99.90
3944;DHT22;1986;52.546;13.428;2022-09-02T02:18:04;14.10;99.90
3944;DHT22;1986;52.546;13.428;2022-09-02T02:20:31;14.10;99.90
3944;DHT22;1986;52.546;13.428;2022-09-02T02:22:58;14.10;99.90
3944;DHT22;1986;52.546;13.428;2022-09-02T02:25:25;14.10;99.90
3944;DHT22;1986;52.546;13.428;2022-09-02T02:27:52;14.10;99.90
3944;DHT22;1986;52.546;13.428;2022-09-02T02:30:19;14.10;99.90
3944;DHT22;1986;52.546;13.428;2022-09-02T02:32:48;14.00;99.90
3944;DHT22;1986;52.546;13.428;2022-09-02T02:35:16;14.00;99.90
3944;DHT22;1986;52.546;13.428;2022-09-02T02:37:43;14.00;99.90
3944;DHT22;1986;52.546;13.428;2022-09-02T02:40:14;14.00;99.90
3944;DHT22;1986;52.546;13.428;2022-09-02T02:42:42;13.80;99.90
3944;DHT22;1986;52.546;13.428;2022-09-02T02:45:10;13.90;99.90
3944;DHT22;1986;52.546;13.428;2022-09-02T02:47:38;13.80;99.90
3944;DHT22;1986;52.546;13.428;2022-09-02T02:50:09;13.80;99.90
3944;DHT22;1986;52.546;13.428;2022-09-02T02:52:37;13.70;99.90
3944;DHT22;1986;52.546;13.428;2022-09-02T02:55:05;13.70;99.90
3944;DHT22;1986;52.546;13.428;2022-09-02T02:57:33;13.70;99.90
3944;DHT22;1986;52.546;13.428;2022-09-02T03:00:03;13.70;99.90
3944;DHT22;1986;52.546;13.428;2022-09-02T03:02:30;13.60;99.90
3944;DHT22;1986;52.546;13.428;2022-09-02T03:04:57;13.50;99.90
3944;DHT22;1986;52.546;13.428;2022-09-02T03:07:26;13.50;99.90
3944;DHT22;1986;52.546;13.428;2022-09-02T03:09:55;13.50;99.90
3944;DHT22;1986;52.546;13.428;2022-09-02T03:12:22;13.40;99.90
3944;DHT22;1986;52.546;13.428;2022-09-02T03:14:50;13.40;99.90
3944;DHT22;1986;52.546;13.428;2022-09-02T03:17:17;13.30;99.90
3944;DHT22;1986;52.546;13.428;2022-09-02T03:19:44;13.20;99.90
3944;DHT22;1986;52.546;13.428;2022-09-02T03:22:11;13.20;99.90
3944;DHT22;1986;52.546;13.428;2022-09-02T03:24:40;13.10;99.90
3944;DHT22;1986;52.546;13.428;2022-09-02T03:27:07;13.10;99.90
3944;DHT22;1986;52.546;13.428;2022-09-02T03:29:34;13.10;99.90
3944;DHT22;1986;52.546;13.428;2022-09-02T03:32:01;13.00;99.90
3944;DHT22;1986;52.546;13.428;2022-09-02T03:34:28;12.90;99.90
3944;DHT22;1986;52.546;13.428;2022-09-02T03:36:56;12.90;99.90
3944;DHT22;1986;52.546;13.428;2022-09-02T03:39:23;12.80;99.90
3944;DHT22;1986;52.546;13.428;2022-09-02T03:41:51;12.70;99.90
3944;DHT22;1986;52.546;13.428;2022-09-02T03:44:18;12.70;99.90
3944;DHT22;1986;52.546;13.428;2022-09-02T03:46:45;12.70;99.90
3944;DHT22;1986;52.546;13.428;2022-09-02T03:49:12;12.60;99.90
3944;DHT22;1986;52.546;13.428;2022-09-02T03:51:40;12.60;99.90
3944;DHT22;1986;52.546;13.428;2022-09-02T03:54:08;12.60;99.90
3944;DHT22;1986;52.546;13.428;2022-09-02T03:56:37;12.60;99.90
3944;DHT22;1986;52.546;13.428;2022-09-02T03:59:06;12.60;99.90
3944;DHT22;1986;52.546;13.428;2022-09-02T04:01:33;12.60;99.90
3944;DHT22;1986;52.546;13.428;2022-09-02T04:04:01;12.50;99.90
3944;DHT22;1986;52.546;13.428;2022-09-02T04:06:28;12.60;99.90
3944;DHT22;1986;52.546;13.428;2022-09-02T04:08:55;12.60;99.90
3944;DHT22;1986;52.546;13.428;2022-09-02T04:11:22;12.60;99.90
3944;DHT22;1986;52.546;13.428;2022-09-02T04:13:51;12.60;99.90
3944;DHT22;1986;52.546;13.428;2022-09-02T04:16:21;12.60;99.90
3944;DHT22;1986;52.546;13.428;2022-09-02T04:18:53;12.60;99.90
3944;DHT22;1986;52.546;13.428;2022-09-02T04:21:21;12.70;99.90
3944;DHT22;1986;52.546;13.428;2022-09-02T04:23:47;12.60;99.90
3944;DHT22;1986;52.546;13.428;2022-09-02T04:26:17;12.60;99.90
3944;DHT22;1986;52.546;13.428;2022-09-02T04:28:44;12.60;99.90
3944;DHT22;1986;52.546;13.428;2022-09-02T04:31:13;12.70;99.90
3944;DHT22;1986;52.546;13.428;2022-09-02T04:33:42;12.70;99.90
3944;DHT22;1986;52.546;13.428;2022-09-02T04:36:11;12.60;99.90
3944;DHT22;1986;52.546;13.428;2022-09-02T04:38:39;12.60;99.90
3944;DHT22;1986;52.546;13.428;2022-09-02T04:41:07;12.60;99.90
3944;DHT22;1986;52.546;13.428;2022-09-02T04:43:35;12.70;99.90
3944;DHT22;1986;52.546;13.428;2022-09-02T04:46:03;12.70;99.90
3944;DHT22;1986;52.546;13.428;2022-09-02T04:48:30;12.70;99.90
3944;DHT22;1986;52.546;13.428;2022-09-02T04:51:03;12.70;99.90
3944;DHT22;1986;52.546;13.428;2022-09-02T04:53:30;12.70;99.90
3944;DHT22;1986;52.546;13.428;2022-09-02T04:55:57;12.80;99.90
3944;DHT22;1986;52.546;13.428;2022-09-02T04:58:24;12.80;99.90
3944;DHT22;1986;52.546;13.428;2022-09-02T05:00:51;12.80;99.90
3944;DHT22;1986;52.546;13.428;2022-09-02T05:03:18;12.80;99.90
3944;DHT22;1986;52.546;13.428;2022-09-02T05:05:45;12.80;99.90
3944;DHT22;1986;52.546;13.428;2022-09-02T05:08:14;12.90;99.90
3944;DHT22;1986;52.546;13.428;2022-09-02T05:10:42;12.90;99.90
3944;DHT22;1986;52.546;13.428;2022-09-02T05:13:09;12.90;99.90
3944;DHT22;1986;52.546;13.428;2022-09-02T05:15:38;13.00;99.90
3944;DHT22;1986;52.546;13.428;2022-09-02T05:18:07;13.10;99.90
3944;DHT22;1986;52.546;13.428;2022-09-02T05:20:36;13.10;99.90
3944;DHT22;1986;52.546;13.428;2022-09-02T05:23:04;13.00;99.90
3944;DHT22;1986;52.546;13.428;2022-09-02T05:25:32;13.10;99.90
3944;DHT22;1986;52.546;13.428;2022-09-02T05:27:59;13.10;99.90
3944;DHT22;1986;52.546;13.428;2022-09-02T05:30:26;13.20;99.90
3944;DHT22;1986;52.546;13.428;2022-09-02T05:32:53;13.30;99.90
3944;DHT22;1986;52.546;13.428;2022-09-02T05:35:20;13.20;99.90
3944;DHT22;1986;52.546;13.428;2022-09-02T05:37:47;13.40;99.90
3944;DHT22;1986;52.546;13.428;2022-09-02T05:40:14;13.60;99.90
3944;DHT22;1986;52.546;13.428;2022-09-02T05:42:42;13.90;99.90
3944;DHT22;1986;52.546;13.428;2022-09-02T05:45:10;14.10;99.90
3944;DHT22;1986;52.546;13.428;2022-09-02T05:47:37;14.20;99.90
3944;DHT22;1986;52.546;13.428;2022-09-02T05:50:05;14.30;99.90
3944;DHT22;1986;52.546;13.428;2022-09-02T05:52:32;14.60;99.90
3944;DHT22;1986;52.546;13.428;2022-09-02T05:54:59;14.40;99.90
3944;DHT22;1986;52.546;13.428;2022-09-02T05:57:28;14.50;99.90
3944;DHT22;1986;52.546;13.428;2022-09-02T05:59:56;14.20;99.90
3944;DHT22;1986;52.546;13.428;2022-09-02T06:02:24;14.00;99.90
3944;DHT22;1986;52.546;13.428;2022-09-02T06:04:53;14.00;99.90
3944;DHT22;1986;52.546;13.428;2022-09-02T06:07:21;13.90;99.90
3944;DHT22;1986;52.546;13.428;2022-09-02T06:09:49;14.00;99.90
3944;DHT22;1986;52.546;13.428;2022-09-02T06:12:18;14.00;99.90
3944;DHT22;1986;52.546;13.428;2022-09-02T06:14:45;14.00;99.90
3944;DHT22;1986;52.546;13.428;2022-09-02T06:17:14;14.10;99.90
3944;DHT22;1986;52.546;13.428;2022-09-02T06:19:41;14.10;99.90
3944;DHT22;1986;52.546;13.428;2022-09-02T06:22:08;14.20;99.90
3944;DHT22;1986;52.546;13.428;2022-09-02T06:24:34;14.20;99.90
3944;DHT22;1986;52.546;13.428;2022-09-02T06:27:01;14.40;99.90
3944;DHT22;1986;52.546;13.428;2022-09-02T06:29:28;14.50;99.90
3944;DHT22;1986;52.546;13.428;2022-09-02T06:31:56;14.50;99.90
3944;DHT22;1986;52.546;13.428;2022-09-02T06:34:24;14.60;99.90
3944;DHT22;1986;52.546;13.428;2022-09-02T06:36:52;14.60;99.90
3944;DHT22;1986;52.546;13.428;2022-09-02T06:39:21;14.60;99.90
3944;DHT22;1986;52.546;13.428;2022-09-02T06:41:48;14.60;99.90
3944;DHT22;1986;52.546;13.428;2022-09-02T06:44:17;14.60;99.90
3944;DHT22;1986;52.546;13.428;2022-09-02T06:46:48;14.90;99.90
3944;DHT22;1986;52.546;13.428;2022-09-02T06:49:18;15.50;99.90
3944;DHT22;1986;52.546;13.428;2022-09-02T06:51:48;16.10;99.90
3944;DHT22;1986;52.546;13.428;2022-09-02T06:54:17;16.00;99.90
3944;DHT22;1986;52.546;13.428;2022-09-02T06:56:45;16.30;99.90
3944;DHT22;1986;52.546;13.428;2022-09-02T06:59:12;16.60;99.90
3944;DHT22;1986;52.546;13.428;2022-09-02T07:01:39;17.30;99.90
3944;DHT22;1986;52.546;13.428;2022-09-02T07:04:08;17.40;99.90
3944;DHT22;1986;52.546;13.428;2022-09-02T07:06:54;17.30;99.90
3944;DHT22;1986;52.546;13.428;2022-09-02T07:09:24;17.50;99.90
3944;DHT22;1986;52.546;13.428;2022-09-02T07:11:56;17.90;99.90
3944;DHT22;1986;52.546;13.428;2022-09-02T07:14:26;18.20;99.90
3944;DHT22;1986;52.546;13.428;2022-09-02T07:16:54;17.90;99.90
3944;DHT22;1986;52.546;13.428;2022-09-02T07:19:22;17.60;99.90
3944;DHT22;1986;52.546;13.428;2022-09-02T07:21:49;18.00;99.90
3944;DHT22;1986;52.546;13.428;2022-09-02T07:24:18;18.10;99.90
3944;DHT22;1986;52.546;13.428;2022-09-02T07:26:45;18.40;99.90
3944;DHT22;1986;52.546;13.428;2022-09-02T07:29:12;17.90;99.90
3944;DHT22;1986;52.546;13.428;2022-09-02T07:31:41;17.70;99.90
3944;DHT22;1986;52.546;13.428;2022-09-02T07:34:09;18.30;99.90
3944;DHT22;1986;52.546;13.428;2022-09-02T07:36:39;18.70;99.90
3944;DHT22;1986;52.546;13.428;2022-09-02T07:39:08;19.10;99.90
3944;DHT22;1986;52.546;13.428;2022-09-02T07:41:38;18.70;99.90
3944;DHT22;1986;52.546;13.428;2022-09-02T07:44:06;19.20;99.90
3944;DHT22;1986;52.546;13.428;2022-09-02T07:46:34;19.70;99.90
3944;DHT22;1986;52.546;13.428;2022-09-02T07:49:04;20.10;99.90
3944;DHT22;1986;52.546;13.428;2022-09-02T07:51:32;19.50;99.90
3944;DHT22;1986;52.546;13.428;2022-09-02T07:54:00;19.60;99.90
3944;DHT22;1986;52.546;13.428;2022-09-02T07:56:27;20.10;99.90
3944;DHT22;1986;52.546;13.428;2022-09-02T07:58:55;20.30;99.90
3944;DHT22;1986;52.546;13.428;2022-09-02T08:01:22;20.80;99.90
3944;DHT22;1986;52.546;13.428;2022-09-02T08:03:50;20.10;99.90
3944;DHT22;1986;52.546;13.428;2022-09-02T08:06:18;20.40;99.90
3944;DHT22;1986;52.546;13.428;2022-09-02T08:08:45;20.50;99.90
3944;DHT22;1986;52.546;13.428;2022-09-02T08:11:13;19.60;99.90
3944;DHT22;1986;52.546;13.428;2022-09-02T08:13:40;19.20;99.90
3944;DHT22;1986;52.546;13.428;2022-09-02T08:16:08;18.80;99.90
3944;DHT22;1986;52.546;13.428;2022-09-02T08:18:35;18.70;99.90
3944;DHT22;1986;52.546;13.428;2022-09-02T08:21:02;18.90;99.90
3944;DHT22;1986;52.546;13.428;2022-09-02T08:23:29;18.80;99.90
3944;DHT22;1986;52.546;13.428;2022-09-02T08:25:58;18.80;99.90
3944;DHT22;1986;52.546;13.428;2022-09-02T08:28:25;18.70;99.90
3944;DHT22;1986;52.546;13.428;2022-09-02T08:30:52;18.70;99.90
3944;DHT22;1986;52.546;13.428;2022-09-02T08:33:21;18.90;99.90
3944;DHT22;1986;52.546;13.428;2022-09-02T08:35:48;18.80;99.90
3944;DHT22;1986;52.546;13.428;2022-09-02T08:38:15;19.00;99.90
3944;DHT22;1986;52.546;13.428;2022-09-02T08:40:43;18.90;99.90
3944;DHT22;1986;52.546;13.428;2022-09-02T08:43:24;18.90;99.90
3944;DHT22;1986;52.546;13.428;2022-09-02T08:45:55;19.00;99.90
3944;DHT22;1986;52.546;13.428;2022-09-02T08:48:29;19.00;99.90
3944;DHT22;1986;52.546;13.428;2022-09-02T08:51:01;18.90;99.90
3944;DHT22;1986;52.546;13.428;2022-09-02T08:53:31;19.20;99.90
3944;DHT22;1986;52.546;13.428;2022-09-02T08:56:03;19.40;99.90
3944;DHT22;1986;52.546;13.428;2022-09-02T08:58:35;19.40;99.90
3944;DHT22;1986;52.546;13.428;2022-09-02T09:01:08;19.40;99.90
3944;DHT22;1986;52.546;13.428;2022-09-02T09:03:41;19.40;99.90
3944;DHT22;1986;52.546;13.428;2022-09-02T09:06:14;19.70;99.90
3944;DHT22;1986;52.546;13.428;2022-09-02T09:08:49;19.80;99.90
3944;DHT22;1986;52.546;13.428;2022-09-02T09:11:24;19.70;99.90
3944;DHT22;1986;52.546;13.428;2022-09-02T09:14:01;19.60;99.90
3944;DHT22;1986;52.546;13.428;2022-09-02T09:16:38;19.30;99.90
3944;DHT22;1986;52.546;13.428;2022-09-02T09:19:12;19.50;99.90
3944;DHT22;1986;52.546;13.428;2022-09-02T09:21:40;19.80;99.90
3944;DHT22;1986;52.546;13.428;2022-09-02T09:24:17;19.60;99.90
3944;DHT22;1986;52.546;13.428;2022-09-02T09:26:46;19.70;99.90
3944;DHT22;1986;52.546;13.428;2022-09-02T09:29:13;19.60;99.90
3944;DHT22;1986;52.546;13.428;2022-09-02T09:31:40;19.70;99.90
3944;DHT22;1986;52.546;13.428;2022-09-02T09:34:11;19.80;99.90
3944;DHT22;1986;52.546;13.428;2022-09-02T09:36:50;20.20;99.90
3944;DHT22;1986;52.546;13.428;2022-09-02T09:39:29;19.90;99.90
3944;DHT22;1986;52.546;13.428;2022-09-02T09:41:57;20.00;99.90
3944;DHT22;1986;52.546;13.428;2022-09-02T09:44:49;19.70;99.70
3944;DHT22;1986;52.546;13.428;2022-09-02T09:47:18;19.60;99.50
3944;DHT22;1986;52.546;13.428;2022-09-02T09:49:48;19.70;99.90
3944;DHT22;1986;52.546;13.428;2022-09-02T09:52:23;19.90;99.80
3944;DHT22;1986;52.546;13.428;2022-09-02T09:55:07;19.80;99.90
3944;DHT22;1986;52.546;13.428;2022-09-02T09:57:36;19.80;99.90
3944;DHT22;1986;52.546;13.428;2022-09-02T10:00:10;19.90;99.50
3944;DHT22;1986;52.546;13.428;2022-09-02T10:02:46;19.70;99.90
3944;DHT22;1986;52.546;13.428;2022-09-02T10:05:26;19.80;99.90
3944;DHT22;1986;52.546;13.428;2022-09-02T10:07:55;19.90;99.90
3944;DHT22;1986;52.546;13.428;2022-09-02T10:10:25;20.20;99.90
3944;DHT22;1986;52.546;13.428;2022-09-02T10:12:54;20.20;99.90
3944;DHT22;1986;52.546;13.428;2022-09-02T10:15:29;20.50;98.50
3944;DHT22;1986;52.546;13.428;2022-09-02T10:18:03;20.30;96.30
3944;DHT22;1986;52.546;13.428;2022-09-02T10:20:42;19.90;96.20
3944;DHT22;1986;52.546;13.428;2022-09-02T10:23:36;19.80;97.20
3944;DHT22;1986;52.546;13.428;2022-09-02T10:26:12;19.70;97.90
3944;DHT22;1986;52.546;13.428;2022-09-02T10:29:18;20.10;98.20
3944;DHT22;1986;52.546;13.428;2022-09-02T10:31:58;20.70;97.30
3944;DHT22;1986;52.546;13.428;2022-09-02T10:34:33;20.80;97.00
3944;DHT22;1986;52.546;13.428;2022-09-02T10:37:11;20.70;96.50
3944;DHT22;1986;52.546;13.428;2022-09-02T10:40:03;20.40;96.50
3944;DHT22;1986;52.546;13.428;2022-09-02T10:42:41;20.10;96.40
3944;DHT22;1986;52.546;13.428;2022-09-02T10:45:13;20.20;95.80
3944;DHT22;1986;52.546;13.428;2022-09-02T10:47:45;20.40;94.90
3944;DHT22;1986;52.546;13.428;2022-09-02T10:50:19;20.30;95.30
3944;DHT22;1986;52.546;13.428;2022-09-02T10:53:13;20.20;94.30
3944;DHT22;1986;52.546;13.428;2022-09-02T10:55:51;20.30;94.50
3944;DHT22;1986;52.546;13.428;2022-09-02T10:58:28;20.30;94.10
3944;DHT22;1986;52.546;13.428;2022-09-02T11:00:59;20.40;94.30
3944;DHT22;1986;52.546;13.428;2022-09-02T11:03:29;20.60;93.30
3944;DHT22;1986;52.546;13.428;2022-09-02T11:06:03;20.50;93.50
3944;DHT22;1986;52.546;13.428;2022-09-02T11:08:38;20.50;94.20
3944;DHT22;1986;52.546;13.428;2022-09-02T11:11:10;20.50;93.70
3944;DHT22;1986;52.546;13.428;2022-09-02T11:13:46;20.80;92.10
3944;DHT22;1986;52.546;13.428;2022-09-02T11:16:19;21.10;91.50
3944;DHT22;1986;52.546;13.428;2022-09-02T11:18:53;21.30;90.90
3944;DHT22;1986;52.546;13.428;2022-09-02T11:21:33;21.00;90.10
3944;DHT22;1986;52.546;13.428;2022-09-02T11:24:07;20.90;88.40
3944;DHT22;1986;52.546;13.428;2022-09-02T11:26:37;21.10;91.30
3944;DHT22;1986;52.546;13.428;2022-09-02T11:29:10;21.00;91.70
3944;DHT22;1986;52.546;13.428;2022-09-02T11:31:42;20.80;92.50
3944;DHT22;1986;52.546;13.428;2022-09-02T11:34:19;21.00;92.90
3944;DHT22;1986;52.546;13.428;2022-09-02T11:36:50;21.10;93.50
3944;DHT22;1986;52.546;13.428;2022-09-02T11:39:25;21.40;93.30
3944;DHT22;1986;52.546;13.428;2022-09-02T11:42:06;21.10;93.60
3944;DHT22;1986;52.546;13.428;2022-09-02T11:48:14;21.20;92.20
3944;DHT22;1986;52.546;13.428;2022-09-02T11:50:54;21.50;92.10
3944;DHT22;1986;52.546;13.428;2022-09-02T11:53:27;21.50;91.20
3944;DHT22;1986;52.546;13.428;2022-09-02T11:55:59;21.70;90.10
3944;DHT22;1986;52.546;13.428;2022-09-02T11:58:33;21.50;89.40
3944;DHT22;1986;52.546;13.428;2022-09-02T12:04:03;21.50;90.70
3944;DHT22;1986;52.546;13.428;2022-09-02T12:06:31;22.00;88.00
3944;DHT22;1986;52.546;13.428;2022-09-02T12:09:06;21.80;87.40
3944;DHT22;1986;52.546;13.428;2022-09-02T12:11:49;21.50;86.90
3944;DHT22;1986;52.546;13.428;2022-09-02T12:17:43;21.50;86.80
3944;DHT22;1986;52.546;13.428;2022-09-02T12:26:17;22.30;87.30
3944;DHT22;1986;52.546;13.428;2022-09-02T12:28:50;22.20;86.00
3944;DHT22;1986;52.546;13.428;2022-09-02T12:31:37;22.30;87.00
3944;DHT22;1986;52.546;13.428;2022-09-02T12:37:51;22.50;85.80
3944;DHT22;1986;52.546;13.428;2022-09-02T12:40:29;22.60;82.70
3944;DHT22;1986;52.546;13.428;2022-09-02T12:43:01;21.80;81.80
3944;DHT22;1986;52.546;13.428;2022-09-02T12:45:33;21.90;82.20
3944;DHT22;1986;52.546;13.428;2022-09-02T12:48:10;21.80;83.10
3944;DHT22;1986;52.546;13.428;2022-09-02T12:50:53;21.50;83.90
3944;DHT22;1986;52.546;13.428;2022-09-02T12:53:36;21.40;84.60
3944;DHT22;1986;52.546;13.428;2022-09-02T12:56:05;21.50;85.40
3944;DHT22;1986;52.546;13.428;2022-09-02T12:58:44;21.10;86.90
3944;DHT22;1986;52.546;13.428;2022-09-02T13:01:17;21.30;87.90
3944;DHT22;1986;52.546;13.428;2022-09-02T13:04:02;21.20;87.70
3944;DHT22;1986;52.546;13.428;2022-09-02T13:06:45;21.20;88.70
3944;DHT22;1986;52.546;13.428;2022-09-02T13:12:55;21.10;87.60
3944;DHT22;1986;52.546;13.428;2022-09-02T13:19:14;21.00;86.30
3944;DHT22;1986;52.546;13.428;2022-09-02T13:22:08;21.00;87.60
3944;DHT22;1986;52.546;13.428;2022-09-02T13:25:11;21.20;87.00
3944;DHT22;1986;52.546;13.428;2022-09-02T13:31:18;21.60;88.30
3944;DHT22;1986;52.546;13.428;2022-09-02T13:33:46;21.90;86.10
3944;DHT22;1986;52.546;13.428;2022-09-02T13:36:23;21.70;85.50
3944;DHT22;1986;52.546;13.428;2022-09-02T13:38:52;21.80;84.20
3944;DHT22;1986;52.546;13.428;2022-09-02T13:41:29;21.80;84.60
3944;DHT22;1986;52.546;13.428;2022-09-02T13:44:10;21.80;83.40
3944;DHT22;1986;52.546;13.428;2022-09-02T13:46:45;21.90;84.60
3944;DHT22;1986;52.546;13.428;2022-09-02T13:49:24;21.60;83.00
3944;DHT22;1986;52.546;13.428;2022-09-02T13:51:55;21.50;82.70
3944;DHT22;1986;52.546;13.428;2022-09-02T13:54:30;21.30;82.40
3944;DHT22;1986;52.546;13.428;2022-09-02T13:57:03;21.30;82.40
3944;DHT22;1986;52.546;13.428;2022-09-02T13:59:33;21.60;83.00
3944;DHT22;1986;52.546;13.428;2022-09-02T14:02:19;21.40;82.20
3944;DHT22;1986;52.546;13.428;2022-09-02T14:04:49;21.50;83.50
3944;DHT22;1986;52.546;13.428;2022-09-02T14:07:27;21.40;82.60
3944;DHT22;1986;52.546;13.428;2022-09-02T14:09:57;21.70;83.40
3944;DHT22;1986;52.546;13.428;2022-09-02T14:12:26;21.70;82.80
3944;DHT22;1986;52.546;13.428;2022-09-02T14:14:53;21.90;83.60
3944;DHT22;1986;52.546;13.428;2022-09-02T14:17:23;21.30;83.30
3944;DHT22;1986;52.546;13.428;2022-09-02T14:19:51;21.50;84.50
3944;DHT22;1986;52.546;13.428;2022-09-02T14:22:22;21.70;83.70
3944;DHT22;1986;52.546;13.428;2022-09-02T14:24:50;21.80;84.30
3944;DHT22;1986;52.546;13.428;2022-09-02T14:27:18;21.80;83.80
3944;DHT22;1986;52.546;13.428;2022-09-02T14:29:46;21.90;83.70
3944;DHT22;1986;52.546;13.428;2022-09-02T14:32:21;21.80;83.30
3944;DHT22;1986;52.546;13.428;2022-09-02T14:35:06;21.90;83.80
3944;DHT22;1986;52.546;13.428;2022-09-02T14:37:47;22.00;84.60
3944;DHT22;1986;52.546;13.428;2022-09-02T14:40:14;21.40;83.80
3944;DHT22;1986;52.546;13.428;2022-09-02T14:42:47;21.40;83.50
3944;DHT22;1986;52.546;13.428;2022-09-02T14:45:24;21.40;83.60
3944;DHT22;1986;52.546;13.428;2022-09-02T14:47:55;21.50;83.00
3944;DHT22;1986;52.546;13.428;2022-09-02T14:50:26;21.40;83.80
3944;DHT22;1986;52.546;13.428;2022-09-02T14:52:58;21.50;83.10
3944;DHT22;1986;52.546;13.428;2022-09-02T14:55:48;21.60;83.50
3944;DHT22;1986;52.546;13.428;2022-09-02T14:58:18;21.50;82.30
3944;DHT22;1986;52.546;13.428;2022-09-02T15:00:47;21.30;82.00
3944;DHT22;1986;52.546;13.428;2022-09-02T15:03:15;21.10;82.80
3944;DHT22;1986;52.546;13.428;2022-09-02T15:05:42;21.00;83.80
3944;DHT22;1986;52.546;13.428;2022-09-02T15:08:11;20.90;84.30
3944;DHT22;1986;52.546;13.428;2022-09-02T15:10:39;20.80;84.30
3944;DHT22;1986;52.546;13.428;2022-09-02T15:13:08;20.80;85.00
3944;DHT22;1986;52.546;13.428;2022-09-02T15:15:39;20.80;85.10
3944;DHT22;1986;52.546;13.428;2022-09-02T15:18:06;20.70;85.30
3944;DHT22;1986;52.546;13.428;2022-09-02T15:20:33;20.80;85.30
3944;DHT22;1986;52.546;13.428;2022-09-02T15:23:00;20.90;84.60
3944;DHT22;1986;52.546;13.428;2022-09-02T15:25:30;21.00;83.00
3944;DHT22;1986;52.546;13.428;2022-09-02T15:27:59;21.10;82.10
3944;DHT22;1986;52.546;13.428;2022-09-02T15:30:29;21.20;81.00
3944;DHT22;1986;52.546;13.428;2022-09-02T15:32:56;21.30;78.60
3944;DHT22;1986;52.546;13.428;2022-09-02T15:35:23;21.40;78.50
3944;DHT22;1986;52.546;13.428;2022-09-02T15:37:49;21.30;78.50
3944;DHT22;1986;52.546;13.428;2022-09-02T15:40:17;21.20;79.40
3944;DHT22;1986;52.546;13.428;2022-09-02T15:42:47;21.20;79.30
3944;DHT22;1986;52.546;13.428;2022-09-02T15:45:14;21.00;79.40
3944;DHT22;1986;52.546;13.428;2022-09-02T15:47:41;20.90;80.40
3944;DHT22;1986;52.546;13.428;2022-09-02T15:50:08;20.80;80.20
3944;DHT22;1986;52.546;13.428;2022-09-02T15:52:35;20.70;79.20
3944;DHT22;1986;52.546;13.428;2022-09-02T15:55:03;20.70;79.80
3944;DHT22;1986;52.546;13.428;2022-09-02T15:57:30;20.60;80.00
3944;DHT22;1986;52.546;13.428;2022-09-02T15:59:58;20.60;79.60
3944;DHT22;1986;52.546;13.428;2022-09-02T16:02:25;20.60;80.20
3944;DHT22;1986;52.546;13.428;2022-09-02T16:04:52;20.70;80.10
3944;DHT22;1986;52.546;13.428;2022-09-02T16:07:19;20.70;79.70
3944;DHT22;1986;52.546;13.428;2022-09-02T16:09:46;20.60;79.90
3944;DHT22;1986;52.546;13.428;2022-09-02T16:12:13;20.60;80.30
3944;DHT22;1986;52.546;13.428;2022-09-02T16:14:40;20.50;79.50
3944;DHT22;1986;52.546;13.428;2022-09-02T16:17:08;20.60;80.50
3944;DHT22;1986;52.546;13.428;2022-09-02T16:19:35;20.60;79.90
3944;DHT22;1986;52.546;13.428;2022-09-02T16:22:02;20.50;79.90
3944;DHT22;1986;52.546;13.428;2022-09-02T16:24:29;20.60;81.30
3944;DHT22;1986;52.546;13.428;2022-09-02T16:26:56;20.70;80.10
3944;DHT22;1986;52.546;13.428;2022-09-02T16:29:23;20.60;79.40
3944;DHT22;1986;52.546;13.428;2022-09-02T16:31:52;20.60;79.90
3944;DHT22;1986;52.546;13.428;2022-09-02T16:34:21;20.70;80.90
3944;DHT22;1986;52.546;13.428;2022-09-02T16:36:48;20.60;80.30